sensor_id;sensor_type;location;lat;lon;timestamp;temperature;humidity
18291;DHT22;9271;48.590;8.866;2022-11-20T00:00:06;6.40;99.90
18291;DHT22;9271;48.590;8.866;2022-11-20T00:02:33;6.50;99.90
18291;DHT22;9271;48.590;8.866;2022-11-20T00:05:01;6.30;99.90
18291;DHT22;9271;48.590;8.866;2022-11-20T00:07:28;6.30;99.90
18291;DHT22;9271;48.590;8.866;2022-11-20T00:09:55;6.40;99.90
18291;DHT22;9271;48.590;8.866;2022-11-20T00:12:23;6.10;99.90
18291;DHT22;9271;48.590;8.866;2022-11-20T00:14:49;6.20;99.90
18291;DHT22;9271;48.590;8.866;2022-11-20T00:17:16;6.50;99.90
18291;DHT22;9271;48.590;8.866;2022-11-20T00:19:43;6.50;99.90
18291;DHT22;9271;48.590;8.866;2022-11-20T00:22:09;6.60;99.90
18291;DHT22;9271;48.590;8.866;2022-11-20T00:24:36;6.40;99.90
18291;DHT22;9271;48.590;8.866;2022-11-20T00:27:03;6.30;99.90
18291;DHT22;9271;48.590;8.866;2022-11-20T00:29:31;6.30;99.90
18291;DHT22;9271;48.590;8.866;2022-11-20T00:31:57;6.10;99.90
18291;DHT22;9271;48.590;8.866;2022-11-20T00:34:24;5.90;99.90
18291;DHT22;9271;48.590;8.866;2022-11-20T00:36:51;5.80;99.90
18291;DHT22;9271;48.590;8.866;2022-11-20T00:39:18;5.70;99.90
18291;DHT22;9271;48.590;8.866;2022-11-20T00:41:44;5.60;99.90
18291;DHT22;9271;48.590;8.866;2022-11-20T00:44:11;5.50;99.90
18291;DHT22;9271;48.590;8.866;2022-11-20T00:46:39;5.50;99.90
18291;DHT22;9271;48.590;8.866;2022-11-20T00:49:06;5.50;99.90
18291;DHT22;9271;48.590;8.866;2022-11-20T00:51:32;5.60;99.90
18291;DHT22;9271;48.590;8.866;2022-11-20T00:53:59;5.50;99.90
18291;DHT22;9271;48.590;8.866;2022-11-20T00:56:27;5.10;99.90
18291;DHT22;9271;48.590;8.866;2022-11-20T00:58:54;5.10;99.90
18291;DHT22;9271;48.590;8.866;2022-11-20T01:01:23;4.90;99.90
18291;DHT22;9271;48.590;8.866;2022-11-20T01:03:53;4.80;99.90
18291;DHT22;9271;48.590;8.866;2022-11-20T01:06:22;4.70;99.90
18291;DHT22;9271;48.590;8.866;2022-11-20T01:08:52;4.80;99.90
18291;DHT22;9271;48.590;8.866;2022-11-20T01:11:21;4.90;99.90
18291;DHT22;9271;48.590;8.866;2022-11-20T01:13:49;4.90;99.90
18291;DHT22;9271;48.590;8.866;2022-11-20T01:16:18;4.90;99.90
18291;DHT22;9271;48.590;8.866;2022-11-20T01:18:47;4.90;99.90
18291;DHT22;9271;48.590;8.866;2022-11-20T01:21:17;4.80;99.90
18291;DHT22;9271;48.590;8.866;2022-11-20T01:23:44;4.60;99.90
18291;DHT22;9271;48.590;8.866;2022-11-20T01:26:13;4.80;99.90
18291;DHT22;9271;48.590;8.866;2022-11-20T01:28:41;4.70;99.90
18291;DHT22;9271;48.590;8.866;2022-11-20T01:31:12;4.80;99.90
18291;DHT22;9271;48.590;8.866;2022-11-20T01:33:39;4.80;99.90
18291;DHT22;9271;48.590;8.866;2022-11-20T01:36:07;4.70;99.90
18291;DHT22;9271;48.590;8.866;2022-11-20T01:38:35;4.70;99.90
18291;DHT22;9271;48.590;8.866;2022-11-20T01:41:03;4.70;99.90
18291;DHT22;9271;48.590;8.866;2022-11-20T01:46:13;4.50;99.90
18291;DHT22;9271;48.590;8.866;2022-11-20T01:48:47;4.60;99.90
18291;DHT22;9271;48.590;8.866;2022-11-20T01:51:21;4.80;99.90
18291;DHT22;9271;48.590;8.866;2022-11-20T01:53:53;4.80;99.90
18291;DHT22;9271;48.590;8.866;2022-11-20T01:56:21;4.60;99.90
18291;DHT22;9271;48.590;8.866;2022-11-20T01:58:52;4.70;99.90
18291;DHT22;9271;48.590;8.866;2022-11-20T02:01:20;4.80;99.90
18291;DHT22;9271;48.590;8.866;2022-11-20T02:03:48;4.80;99.90
18291;DHT22;9271;48.590;8.866;2022-11-20T02:06:19;4.80;99.90
18291;DHT22;9271;48.590;8.866;2022-11-20T02:08:48;4.60;99.90
18291;DHT22;9271;48.590;8.866;2022-11-20T02:11:16;4.50;99.90
18291;DHT22;9271;48.590;8.866;2022-11-20T02:13:43;4.60;99.90
18291;DHT22;9271;48.590;8.866;2022-11-20T02:16:11;4.50;99.90
18291;DHT22;9271;48.590;8.866;2022-11-20T02:18:39;4.40;99.90
18291;DHT22;9271;48.590;8.866;2022-11-20T02:21:17;4.40;99.90
18291;DHT22;9271;48.590;8.866;2022-11-20T02:26:48;4.60;99.90
18291;DHT22;9271;48.590;8.866;2022-11-20T02:29:19;4.70;99.90
18291;DHT22;9271;48.590;8.866;2022-11-20T02:31:47;4.70;99.90
18291;DHT22;9271;48.590;8.866;2022-11-20T02:34:14;4.80;99.90
18291;DHT22;9271;48.590;8.866;2022-11-20T02:36:41;4.80;99.90
18291;DHT22;9271;48.590;8.866;2022-11-20T02:39:11;4.80;99.90
18291;DHT22;9271;48.590;8.866;2022-11-20T02:41:42;4.90;99.90
18291;DHT22;9271;48.590;8.866;2022-11-20T02:44:09;4.90;99.90
18291;DHT22;9271;48.590;8.866;2022-11-20T02:46:36;4.70;99.90
18291;DHT22;9271;48.590;8.866;2022-11-20T02:49:03;4.70;99.90
18291;DHT22;9271;48.590;8.866;2022-11-20T02:51:30;5.00;99.90
18291;DHT22;9271;48.590;8.866;2022-11-20T02:53:57;5.10;99.90
18291;DHT22;9271;48.590;8.866;2022-11-20T02:56:25;5.20;99.90
18291;DHT22;9271;48.590;8.866;2022-11-20T02:58:52;5.20;99.90
18291;DHT22;9271;48.590;8.866;2022-11-20T03:01:18;5.30;99.90
18291;DHT22;9271;48.590;8.866;2022-11-20T03:03:45;5.30;99.90
18291;DHT22;9271;48.590;8.866;2022-11-20T03:06:14;5.40;99.90
18291;DHT22;9271;48.590;8.866;2022-11-20T03:08:40;5.50;99.90
18291;DHT22;9271;48.590;8.866;2022-11-20T03:11:07;5.50;99.90
18291;DHT22;9271;48.590;8.866;2022-11-20T03:13:36;5.50;99.90
18291;DHT22;9271;48.590;8.866;2022-11-20T03:16:07;5.70;99.90
18291;DHT22;9271;48.590;8.866;2022-11-20T03:18:34;5.70;99.90
18291;DHT22;9271;48.590;8.866;2022-11-20T03:21:01;5.60;99.90
18291;DHT22;9271;48.590;8.866;2022-11-20T03:23:30;5.30;99.90
18291;DHT22;9271;48.590;8.866;2022-11-20T03:26:11;5.10;99.90
18291;DHT22;9271;48.590;8.866;2022-11-20T03:28:39;5.20;99.90
18291;DHT22;9271;48.590;8.866;2022-11-20T03:31:11;5.30;99.90
18291;DHT22;9271;48.590;8.866;2022-11-20T03:33:38;5.50;99.90
18291;DHT22;9271;48.590;8.866;2022-11-20T03:36:07;5.50;99.90
18291;DHT22;9271;48.590;8.866;2022-11-20T03:38:34;5.60;99.90
18291;DHT22;9271;48.590;8.866;2022-11-20T03:41:02;5.80;99.90
18291;DHT22;9271;48.590;8.866;2022-11-20T03:43:29;5.90;99.90
18291;DHT22;9271;48.590;8.866;2022-11-20T03:45:57;5.90;99.90
18291;DHT22;9271;48.590;8.866;2022-11-20T03:48:24;5.90;99.90
18291;DHT22;9271;48.590;8.866;2022-11-20T03:50:51;5.60;99.90
18291;DHT22;9271;48.590;8.866;2022-11-20T03:53:18;5.50;99.90
18291;DHT22;9271;48.590;8.866;2022-11-20T03:55:45;5.60;99.90
18291;DHT22;9271;48.590;8.866;2022-11-20T03:58:16;5.70;99.90
18291;DHT22;9271;48.590;8.866;2022-11-20T04:00:43;6.00;99.90
18291;DHT22;9271;48.590;8.866;2022-11-20T04:03:11;6.00;99.90
18291;DHT22;9271;48.590;8.866;2022-11-20T04:05:38;6.10;99.90
18291;DHT22;9271;48.590;8.866;2022-11-20T04:08:05;6.10;99.90
18291;DHT22;9271;48.590;8.866;2022-11-20T04:10:31;6.10;99.90
18291;DHT22;9271;48.590;8.866;2022-11-20T04:12:58;5.90;99.90
18291;DHT22;9271;48.590;8.866;2022-11-20T04:15:25;6.00;99.90
18291;DHT22;9271;48.590;8.866;2022-11-20T04:17:51;6.10;99.90
18291;DHT22;9271;48.590;8.866;2022-11-20T04:20:19;6.10;99.90
18291;DHT22;9271;48.590;8.866;2022-11-20T04:22:46;6.20;99.90
18291;DHT22;9271;48.590;8.866;2022-11-20T04:25:13;6.20;99.90
18291;DHT22;9271;48.590;8.866;2022-11-20T04:27:40;6.10;99.90
18291;DHT22;9271;48.590;8.866;2022-11-20T04:30:07;6.00;99.90
18291;DHT22;9271;48.590;8.866;2022-11-20T04:32:34;5.90;99.90
18291;DHT22;9271;48.590;8.866;2022-11-20T04:35:01;6.20;99.90
18291;DHT22;9271;48.590;8.866;2022-11-20T04:37:29;6.20;99.90
18291;DHT22;9271;48.590;8.866;2022-11-20T04:39:55;6.20;99.90
18291;DHT22;9271;48.590;8.866;2022-11-20T04:42:22;6.20;99.90
18291;DHT22;9271;48.590;8.866;2022-11-20T04:44:55;6.30;99.90
18291;DHT22;9271;48.590;8.866;2022-11-20T04:47:22;6.20;99.90
18291;DHT22;9271;48.590;8.866;2022-11-20T04:49:49;6.10;99.90
18291;DHT22;9271;48.590;8.866;2022-11-20T04:52:16;6.20;99.90
18291;DHT22;9271;48.590;8.866;2022-11-20T04:54:44;6.20;99.90
18291;DHT22;9271;48.590;8.866;2022-11-20T04:57:13;6.30;99.90
18291;DHT22;9271;48.590;8.866;2022-11-20T04:59:40;6.40;99.90
18291;DHT22;9271;48.590;8.866;2022-11-20T05:02:06;6.50;99.90
18291;DHT22;9271;48.590;8.866;2022-11-20T05:04:33;6.50;99.90
18291;DHT22;9271;48.590;8.866;2022-11-20T05:07:00;6.50;99.90
18291;DHT22;9271;48.590;8.866;2022-11-20T05:09:26;6.50;99.90
18291;DHT22;9271;48.590;8.866;2022-11-20T05:11:54;6.50;99.90
18291;DHT22;9271;48.590;8.866;2022-11-20T05:14:21;6.50;99.90
18291;DHT22;9271;48.590;8.866;2022-11-20T05:16:48;6.70;99.90
18291;DHT22;9271;48.590;8.866;2022-11-20T05:19:14;6.60;99.90
18291;DHT22;9271;48.590;8.866;2022-11-20T05:21:41;6.60;99.90
18291;DHT22;9271;48.590;8.866;2022-11-20T05:24:08;6.50;99.90
18291;DHT22;9271;48.590;8.866;2022-11-20T05:26:35;6.50;99.90
18291;DHT22;9271;48.590;8.866;2022-11-20T05:29:03;6.40;99.90
18291;DHT22;9271;48.590;8.866;2022-11-20T05:31:30;6.60;99.90
18291;DHT22;9271;48.590;8.866;2022-11-20T05:33:57;6.70;99.90
18291;DHT22;9271;48.590;8.866;2022-11-20T05:36:24;6.80;99.90
18291;DHT22;9271;48.590;8.866;2022-11-20T05:38:51;6.80;99.90
18291;DHT22;9271;48.590;8.866;2022-11-20T05:41:19;6.70;99.90
18291;DHT22;9271;48.590;8.866;2022-11-20T05:43:47;6.70;99.90
18291;DHT22;9271;48.590;8.866;2022-11-20T05:46:17;6.70;99.90
18291;DHT22;9271;48.590;8.866;2022-11-20T05:48:45;6.50;99.90
18291;DHT22;9271;48.590;8.866;2022-11-20T05:51:14;6.60;99.90
18291;DHT22;9271;48.590;8.866;2022-11-20T05:53:42;6.60;99.90
18291;DHT22;9271;48.590;8.866;2022-11-20T05:56:10;6.60;99.90
18291;DHT22;9271;48.590;8.866;2022-11-20T05:58:38;6.60;99.90
18291;DHT22;9271;48.590;8.866;2022-11-20T06:01:07;6.50;99.90
18291;DHT22;9271;48.590;8.866;2022-11-20T06:03:35;6.40;99.90
18291;DHT22;9271;48.590;8.866;2022-11-20T06:06:03;6.40;99.90
18291;DHT22;9271;48.590;8.866;2022-11-20T06:08:30;6.50;99.90
18291;DHT22;9271;48.590;8.866;2022-11-20T06:10:57;6.60;99.90
18291;DHT22;9271;48.590;8.866;2022-11-20T06:13:24;6.70;99.90
18291;DHT22;9271;48.590;8.866;2022-11-20T06:15:52;6.70;99.90
18291;DHT22;9271;48.590;8.866;2022-11-20T06:18:19;6.70;99.90
18291;DHT22;9271;48.590;8.866;2022-11-20T06:20:47;6.60;99.90
18291;DHT22;9271;48.590;8.866;2022-11-20T06:23:14;6.80;99.90
18291;DHT22;9271;48.590;8.866;2022-11-20T06:25:42;7.00;99.90
18291;DHT22;9271;48.590;8.866;2022-11-20T06:28:09;6.90;99.90
18291;DHT22;9271;48.590;8.866;2022-11-20T06:30:36;6.90;99.90
18291;DHT22;9271;48.590;8.866;2022-11-20T06:33:03;6.90;99.90
18291;DHT22;9271;48.590;8.866;2022-11-20T06:35:30;6.90;99.90
18291;DHT22;9271;48.590;8.866;2022-11-20T06:37:58;6.90;99.90
18291;DHT22;9271;48.590;8.866;2022-11-20T06:40:25;7.00;99.90
18291;DHT22;9271;48.590;8.866;2022-11-20T06:42:53;7.20;99.90
18291;DHT22;9271;48.590;8.866;2022-11-20T06:45:20;7.30;99.90
18291;DHT22;9271;48.590;8.866;2022-11-20T06:47:47;7.30;99.90
18291;DHT22;9271;48.590;8.866;2022-11-20T06:50:13;7.30;99.90
18291;DHT22;9271;48.590;8.866;2022-11-20T06:52:40;7.30;99.90
18291;DHT22;9271;48.590;8.866;2022-11-20T06:55:08;7.40;99.90
18291;DHT22;9271;48.590;8.866;2022-11-20T06:57:35;7.40;99.90
18291;DHT22;9271;48.590;8.866;2022-11-20T07:00:02;7.30;99.90
18291;DHT22;9271;48.590;8.866;2022-11-20T07:02:29;7.30;99.90
18291;DHT22;9271;48.590;8.866;2022-11-20T07:04:56;7.30;99.90
18291;DHT22;9271;48.590;8.866;2022-11-20T07:07:22;7.10;99.90
18291;DHT22;9271;48.590;8.866;2022-11-20T07:09:49;7.10;99.90
18291;DHT22;9271;48.590;8.866;2022-11-20T07:12:17;7.30;99.90
18291;DHT22;9271;48.590;8.866;2022-11-20T07:14:44;7.30;99.90
18291;DHT22;9271;48.590;8.866;2022-11-20T07:17:11;7.40;99.90
18291;DHT22;9271;48.590;8.866;2022-11-20T07:19:38;7.50;99.90
18291;DHT22;9271;48.590;8.866;2022-11-20T07:22:05;7.70;99.90
18291;DHT22;9271;48.590;8.866;2022-11-20T07:24:31;7.70;99.90
18291;DHT22;9271;48.590;8.866;2022-11-20T07:26:58;7.90;99.90
18291;DHT22;9271;48.590;8.866;2022-11-20T07:29:26;7.90;99.90
18291;DHT22;9271;48.590;8.866;2022-11-20T07:31:53;7.90;99.90
18291;DHT22;9271;48.590;8.866;2022-11-20T07:34:20;7.80;99.90
18291;DHT22;9271;48.590;8.866;2022-11-20T07:36:47;7.90;99.90
18291;DHT22;9271;48.590;8.866;2022-11-20T07:39:14;7.80;99.90
18291;DHT22;9271;48.590;8.866;2022-11-20T07:41:41;7.60;99.90
18291;DHT22;9271;48.590;8.866;2022-11-20T07:44:07;7.60;99.90
18291;DHT22;9271;48.590;8.866;2022-11-20T07:46:35;7.90;99.90
18291;DHT22;9271;48.590;8.866;2022-11-20T07:49:02;8.00;99.90
18291;DHT22;9271;48.590;8.866;2022-11-20T07:51:29;8.00;99.90
18291;DHT22;9271;48.590;8.866;2022-11-20T07:53:56;7.90;99.90
18291;DHT22;9271;48.590;8.866;2022-11-20T07:56:23;7.90;99.90
18291;DHT22;9271;48.590;8.866;2022-11-20T07:58:49;7.70;99.90
18291;DHT22;9271;48.590;8.866;2022-11-20T08:01:16;7.60;99.90
18291;DHT22;9271;48.590;8.866;2022-11-20T08:03:44;7.40;99.90
18291;DHT22;9271;48.590;8.866;2022-11-20T08:06:11;7.20;99.90
18291;DHT22;9271;48.590;8.866;2022-11-20T08:08:37;7.50;99.90
18291;DHT22;9271;48.590;8.866;2022-11-20T08:11:05;7.70;99.90
18291;DHT22;9271;48.590;8.866;2022-11-20T08:13:49;7.90;99.90
18291;DHT22;9271;48.590;8.866;2022-11-20T08:16:33;7.90;99.90
18291;DHT22;9271;48.590;8.866;2022-11-20T08:19:01;8.00;99.90
18291;DHT22;9271;48.590;8.866;2022-11-20T08:21:29;7.80;99.90
18291;DHT22;9271;48.590;8.866;2022-11-20T08:23:57;8.10;99.90
18291;DHT22;9271;48.590;8.866;2022-11-20T08:26:24;8.40;99.90
18291;DHT22;9271;48.590;8.866;2022-11-20T08:28:53;8.50;99.90
18291;DHT22;9271;48.590;8.866;2022-11-20T08:31:21;8.60;99.90
18291;DHT22;9271;48.590;8.866;2022-11-20T08:33:47;8.40;99.90
18291;DHT22;9271;48.590;8.866;2022-11-20T08:36:16;8.40;99.90
18291;DHT22;9271;48.590;8.866;2022-11-20T08:38:47;8.20;99.90
18291;DHT22;9271;48.590;8.866;2022-11-20T08:41:13;8.20;99.90
18291;DHT22;9271;48.590;8.866;2022-11-20T08:43:51;8.30;99.90
18291;DHT22;9271;48.590;8.866;2022-11-20T08:46:19;8.30;99.90
18291;DHT22;9271;48.590;8.866;2022-11-20T08:48:45;8.40;99.90
18291;DHT22;9271;48.590;8.866;2022-11-20T08:51:13;8.10;99.90
18291;DHT22;9271;48.590;8.866;2022-11-20T08:53:41;7.60;99.90
18291;DHT22;9271;48.590;8.866;2022-11-20T08:56:08;7.50;99.90
18291;DHT22;9271;48.590;8.866;2022-11-20T08:58:36;7.60;99.90
18291;DHT22;9271;48.590;8.866;2022-11-20T09:01:03;7.60;99.90
18291;DHT22;9271;48.590;8.866;2022-11-20T09:03:30;7.60;99.90
18291;DHT22;9271;48.590;8.866;2022-11-20T09:05:57;7.40;99.90
18291;DHT22;9271;48.590;8.866;2022-11-20T09:08:25;7.40;99.90
18291;DHT22;9271;48.590;8.866;2022-11-20T09:10:54;7.80;99.90
18291;DHT22;9271;48.590;8.866;2022-11-20T09:13:22;8.10;99.90
18291;DHT22;9271;48.590;8.866;2022-11-20T09:15:53;8.40;99.90
18291;DHT22;9271;48.590;8.866;2022-11-20T09:18:20;8.00;99.90
18291;DHT22;9271;48.590;8.866;2022-11-20T09:20:46;7.80;99.90
18291;DHT22;9271;48.590;8.866;2022-11-20T09:23:13;7.90;99.90
18291;DHT22;9271;48.590;8.866;2022-11-20T09:25:40;8.30;99.90
18291;DHT22;9271;48.590;8.866;2022-11-20T09:28:08;7.90;99.90
18291;DHT22;9271;48.590;8.866;2022-11-20T09:30:35;7.80;99.90
18291;DHT22;9271;48.590;8.866;2022-11-20T09:33:04;7.90;99.90
18291;DHT22;9271;48.590;8.866;2022-11-20T09:35:31;7.80;99.90
18291;DHT22;9271;48.590;8.866;2022-11-20T09:37:58;7.80;99.90
18291;DHT22;9271;48.590;8.866;2022-11-20T09:40:26;7.80;99.90
18291;DHT22;9271;48.590;8.866;2022-11-20T09:42:57;7.90;99.90
18291;DHT22;9271;48.590;8.866;2022-11-20T09:45:37;8.10;99.90
18291;DHT22;9271;48.590;8.866;2022-11-20T09:48:20;8.10;99.90
18291;DHT22;9271;48.590;8.866;2022-11-20T09:50:57;8.10;99.90
18291;DHT22;9271;48.590;8.866;2022-11-20T09:53:33;7.90;99.90
18291;DHT22;9271;48.590;8.866;2022-11-20T09:56:03;8.00;99.90
18291;DHT22;9271;48.590;8.866;2022-11-20T09:58:35;8.30;99.90
18291;DHT22;9271;48.590;8.866;2022-11-20T10:01:09;8.20;99.90
18291;DHT22;9271;48.590;8.866;2022-11-20T10:03:45;7.90;99.90
18291;DHT22;9271;48.590;8.866;2022-11-20T10:06:18;7.80;99.90
18291;DHT22;9271;48.590;8.866;2022-11-20T10:08:50;8.10;99.90
18291;DHT22;9271;48.590;8.866;2022-11-20T10:11:26;8.30;99.90
18291;DHT22;9271;48.590;8.866;2022-11-20T10:14:02;8.40;99.90
18291;DHT22;9271;48.590;8.866;2022-11-20T10:16:40;8.70;99.90
18291;DHT22;9271;48.590;8.866;2022-11-20T10:19:22;8.90;99.90
18291;DHT22;9271;48.590;8.866;2022-11-20T10:21:59;8.80;99.90
18291;DHT22;9271;48.590;8.866;2022-11-20T10:24:44;9.20;99.90
18291;DHT22;9271;48.590;8.866;2022-11-20T10:27:28;9.70;99.90
18291;DHT22;9271;48.590;8.866;2022-11-20T10:30:03;9.70;99.90
18291;DHT22;9271;48.590;8.866;2022-11-20T10:32:37;9.80;99.90
18291;DHT22;9271;48.590;8.866;2022-11-20T10:35:14;9.90;99.90
18291;DHT22;9271;48.590;8.866;2022-11-20T10:37:44;10.10;99.90
18291;DHT22;9271;48.590;8.866;2022-11-20T10:40:20;9.90;99.90
18291;DHT22;9271;48.590;8.866;2022-11-20T10:42:51;10.40;99.80
18291;DHT22;9271;48.590;8.866;2022-11-20T10:45:31;11.00;99.60
18291;DHT22;9271;48.590;8.866;2022-11-20T10:48:12;14.10;95.90
18291;DHT22;9271;48.590;8.866;2022-11-20T10:50:56;16.90;91.10
18291;DHT22;9271;48.590;8.866;2022-11-20T10:53:38;18.90;81.70
18291;DHT22;9271;48.590;8.866;2022-11-20T10:56:11;17.30;84.40
18291;DHT22;9271;48.590;8.866;2022-11-20T10:58:48;15.20;86.20
18291;DHT22;9271;48.590;8.866;2022-11-20T11:01:18;14.10;91.60
18291;DHT22;9271;48.590;8.866;2022-11-20T11:03:49;13.60;92.80
18291;DHT22;9271;48.590;8.866;2022-11-20T11:06:21;13.00;92.50
18291;DHT22;9271;48.590;8.866;2022-11-20T11:08:53;12.60;94.40
18291;DHT22;9271;48.590;8.866;2022-11-20T11:11:23;12.30;93.90
18291;DHT22;9271;48.590;8.866;2022-11-20T11:13:50;11.90;95.50
18291;DHT22;9271;48.590;8.866;2022-11-20T11:16:21;12.00;95.10
18291;DHT22;9271;48.590;8.866;2022-11-20T11:18:50;12.20;95.80
18291;DHT22;9271;48.590;8.866;2022-11-20T11:21:23;13.90;93.80
18291;DHT22;9271;48.590;8.866;2022-11-20T11:23:59;16.90;88.50
18291;DHT22;9271;48.590;8.866;2022-11-20T11:26:26;17.90;81.70
18291;DHT22;9271;48.590;8.866;2022-11-20T11:28:55;18.00;77.70
18291;DHT22;9271;48.590;8.866;2022-11-20T11:31:23;17.40;78.00
18291;DHT22;9271;48.590;8.866;2022-11-20T11:33:51;17.00;81.00
18291;DHT22;9271;48.590;8.866;2022-11-20T11:36:21;14.60;83.10
18291;DHT22;9271;48.590;8.866;2022-11-20T11:38:51;13.80;87.40
18291;DHT22;9271;48.590;8.866;2022-11-20T11:41:20;15.80;84.60
18291;DHT22;9271;48.590;8.866;2022-11-20T11:43:52;16.40;78.90
18291;DHT22;9271;48.590;8.866;2022-11-20T11:46:39;16.20;79.70
18291;DHT22;9271;48.590;8.866;2022-11-20T11:49:16;18.30;75.50
18291;DHT22;9271;48.590;8.866;2022-11-20T11:51:52;21.10;69.20
18291;DHT22;9271;48.590;8.866;2022-11-20T11:54:25;22.90;64.90
18291;DHT22;9271;48.590;8.866;2022-11-20T11:56:53;22.60;60.00
18291;DHT22;9271;48.590;8.866;2022-11-20T11:59:26;20.60;62.50
18291;DHT22;9271;48.590;8.866;2022-11-20T12:01:56;18.80;64.20
18291;DHT22;9271;48.590;8.866;2022-11-20T12:04:38;17.10;68.70
18291;DHT22;9271;48.590;8.866;2022-11-20T12:07:11;16.00;70.90
18291;DHT22;9271;48.590;8.866;2022-11-20T12:09:43;13.50;79.10
18291;DHT22;9271;48.590;8.866;2022-11-20T12:12:17;12.30;83.30
18291;DHT22;9271;48.590;8.866;2022-11-20T12:14:47;11.60;87.10
18291;DHT22;9271;48.590;8.866;2022-11-20T12:17:15;10.70;90.10
18291;DHT22;9271;48.590;8.866;2022-11-20T12:19:44;12.90;89.10
18291;DHT22;9271;48.590;8.866;2022-11-20T12:22:22;12.70;84.10
18291;DHT22;9271;48.590;8.866;2022-11-20T12:24:58;12.10;88.50
18291;DHT22;9271;48.590;8.866;2022-11-20T12:27:41;13.30;83.70
18291;DHT22;9271;48.590;8.866;2022-11-20T12:30:12;12.70;85.60
18291;DHT22;9271;48.590;8.866;2022-11-20T12:33:08;14.30;82.40
18291;DHT22;9271;48.590;8.866;2022-11-20T12:35:51;15.40;79.10
18291;DHT22;9271;48.590;8.866;2022-11-20T12:38:49;16.60;73.20
18291;DHT22;9271;48.590;8.866;2022-11-20T12:41:29;16.70;75.70
18291;DHT22;9271;48.590;8.866;2022-11-20T12:44:30;17.50;70.70
18291;DHT22;9271;48.590;8.866;2022-11-20T12:47:26;16.30;73.80
18291;DHT22;9271;48.590;8.866;2022-11-20T12:50:00;16.20;72.20
18291;DHT22;9271;48.590;8.866;2022-11-20T12:52:38;16.20;74.30
18291;DHT22;9271;48.590;8.866;2022-11-20T12:55:13;16.80;71.50
18291;DHT22;9271;48.590;8.866;2022-11-20T12:57:46;17.00;68.90
18291;DHT22;9271;48.590;8.866;2022-11-20T13:00:18;16.70;68.80
18291;DHT22;9271;48.590;8.866;2022-11-20T13:03:11;16.30;70.60
18291;DHT22;9271;48.590;8.866;2022-11-20T13:05:52;17.00;67.90
18291;DHT22;9271;48.590;8.866;2022-11-20T13:08:25;17.10;67.60
18291;DHT22;9271;48.590;8.866;2022-11-20T13:10:58;17.20;66.60
18291;DHT22;9271;48.590;8.866;2022-11-20T13:13:33;17.10;65.20
18291;DHT22;9271;48.590;8.866;2022-11-20T13:16:06;18.20;66.20
18291;DHT22;9271;48.590;8.866;2022-11-20T13:18:39;17.70;63.90
18291;DHT22;9271;48.590;8.866;2022-11-20T13:21:17;16.00;67.60
18291;DHT22;9271;48.590;8.866;2022-11-20T13:23:46;13.70;74.20
18291;DHT22;9271;48.590;8.866;2022-11-20T13:26:19;12.70;79.00
18291;DHT22;9271;48.590;8.866;2022-11-20T13:28:48;11.80;82.10
18291;DHT22;9271;48.590;8.866;2022-11-20T13:31:30;10.90;86.70
18291;DHT22;9271;48.590;8.866;2022-11-20T13:33:58;10.90;87.70
18291;DHT22;9271;48.590;8.866;2022-11-20T13:36:28;11.00;89.50
18291;DHT22;9271;48.590;8.866;2022-11-20T13:38:57;11.00;90.00
18291;DHT22;9271;48.590;8.866;2022-11-20T13:41:25;11.30;89.60
18291;DHT22;9271;48.590;8.866;2022-11-20T13:43:59;11.30;88.70
18291;DHT22;9271;48.590;8.866;2022-11-20T13:46:40;11.60;89.50
18291;DHT22;9271;48.590;8.866;2022-11-20T13:49:10;11.50;88.40
18291;DHT22;9271;48.590;8.866;2022-11-20T13:51:43;11.30;88.80
18291;DHT22;9271;48.590;8.866;2022-11-20T13:57:35;10.30;90.80
18291;DHT22;9271;48.590;8.866;2022-11-20T14:00:11;9.80;91.90
18291;DHT22;9271;48.590;8.866;2022-11-20T14:02:39;9.60;92.70
18291;DHT22;9271;48.590;8.866;2022-11-20T14:05:17;9.50;93.00
18291;DHT22;9271;48.590;8.866;2022-11-20T14:07:45;9.20;94.20
18291;DHT22;9271;48.590;8.866;2022-11-20T14:10:22;9.30;94.50
18291;DHT22;9271;48.590;8.866;2022-11-20T14:12:50;9.10;95.00
18291;DHT22;9271;48.590;8.866;2022-11-20T14:15:25;9.10;95.40
18291;DHT22;9271;48.590;8.866;2022-11-20T14:17:53;9.40;95.00
18291;DHT22;9271;48.590;8.866;2022-11-20T14:20:19;9.40;94.70
18291;DHT22;9271;48.590;8.866;2022-11-20T14:22:51;9.30;95.20
18291;DHT22;9271;48.590;8.866;2022-11-20T14:25:21;8.90;96.40
18291;DHT22;9271;48.590;8.866;2022-11-20T14:27:53;8.80;96.00
18291;DHT22;9271;48.590;8.866;2022-11-20T14:30:22;8.70;96.80
18291;DHT22;9271;48.590;8.866;2022-11-20T14:32:51;8.60;96.70
18291;DHT22;9271;48.590;8.866;2022-11-20T14:35:23;8.60;97.20
18291;DHT22;9271;48.590;8.866;2022-11-20T14:37:50;8.80;97.40
18291;DHT22;9271;48.590;8.866;2022-11-20T14:40:27;8.40;98.30
18291;DHT22;9271;48.590;8.866;2022-11-20T14:42:55;7.90;99.80
18291;DHT22;9271;48.590;8.866;2022-11-20T14:45:23;7.70;99.90
18291;DHT22;9271;48.590;8.866;2022-11-20T14:47:51;7.60;99.90
18291;DHT22;9271;48.590;8.866;2022-11-20T14:50:21;7.60;99.90
18291;DHT22;9271;48.590;8.866;2022-11-20T14:52:53;7.60;99.90
18291;DHT22;9271;48.590;8.866;2022-11-20T14:55:29;7.80;99.90
18291;DHT22;9271;48.590;8.866;2022-11-20T14:57:57;8.10;99.90
18291;DHT22;9271;48.590;8.866;2022-11-20T15:00:25;8.00;99.90
18291;DHT22;9271;48.590;8.866;2022-11-20T15:02:52;8.00;99.90
18291;DHT22;9271;48.590;8.866;2022-11-20T15:05:21;7.70;99.90
18291;DHT22;9271;48.590;8.866;2022-11-20T15:07:50;7.50;99.90
18291;DHT22;9271;48.590;8.866;2022-11-20T15:10:22;7.50;99.90
18291;DHT22;9271;48.590;8.866;2022-11-20T15:12:52;7.60;99.90
18291;DHT22;9271;48.590;8.866;2022-11-20T15:15:23;7.70;99.90
18291;DHT22;9271;48.590;8.866;2022-11-20T15:17:51;7.70;99.90
18291;DHT22;9271;48.590;8.866;2022-11-20T15:20:18;7.80;99.90
18291;DHT22;9271;48.590;8.866;2022-11-20T15:22:45;7.50;99.90
18291;DHT22;9271;48.590;8.866;2022-11-20T15:25:13;7.60;99.90
18291;DHT22;9271;48.590;8.866;2022-11-20T15:27:40;7.60;99.90
18291;DHT22;9271;48.590;8.866;2022-11-20T15:30:15;7.60;99.90
18291;DHT22;9271;48.590;8.866;2022-11-20T15:32:43;7.40;99.90
18291;DHT22;9271;48.590;8.866;2022-11-20T15:35:10;7.40;99.90
18291;DHT22;9271;48.590;8.866;2022-11-20T15:37:37;7.20;99.90
18291;DHT22;9271;48.590;8.866;2022-11-20T15:40:05;7.40;99.90
18291;DHT22;9271;48.590;8.866;2022-11-20T15:42:32;7.40;99.90
18291;DHT22;9271;48.590;8.866;2022-11-20T15:44:59;7.40;99.90
18291;DHT22;9271;48.590;8.866;2022-11-20T15:47:29;7.70;99.90
18291;DHT22;9271;48.590;8.866;2022-11-20T15:49:57;7.90;99.90
18291;DHT22;9271;48.590;8.866;2022-11-20T15:52:23;7.90;99.90
18291;DHT22;9271;48.590;8.866;2022-11-20T15:54:50;7.80;99.90
18291;DHT22;9271;48.590;8.866;2022-11-20T15:57:17;7.60;99.90
18291;DHT22;9271;48.590;8.866;2022-11-20T15:59:44;7.60;99.90
18291;DHT22;9271;48.590;8.866;2022-11-20T16:02:11;7.60;99.90
18291;DHT22;9271;48.590;8.866;2022-11-20T16:04:40;7.50;99.90
18291;DHT22;9271;48.590;8.866;2022-11-20T16:07:06;7.70;99.90
18291;DHT22;9271;48.590;8.866;2022-11-20T16:09:33;7.80;99.90
18291;DHT22;9271;48.590;8.866;2022-11-20T16:12:00;7.90;99.90
18291;DHT22;9271;48.590;8.866;2022-11-20T16:14:27;8.00;99.90
18291;DHT22;9271;48.590;8.866;2022-11-20T16:17:11;8.30;99.90
18291;DHT22;9271;48.590;8.866;2022-11-20T16:19:39;8.30;99.90
18291;DHT22;9271;48.590;8.866;2022-11-20T16:22:06;7.90;99.90
18291;DHT22;9271;48.590;8.866;2022-11-20T16:24:32;7.50;99.90